EDT,Max TemperatureF,Mean TemperatureF,Min TemperatureF,Max Dew PointF,MeanDew PointF,Min DewpointF,Max Humidity, Mean Humidity, Min Humidity, Max Sea Level PressureIn, Mean Sea Level PressureIn, Min Sea Level PressureIn, Max VisibilityMiles, Mean VisibilityMiles, Min VisibilityMiles, Max Wind SpeedMPH, Mean Wind SpeedMPH, Max Gust SpeedMPH,PrecipitationIn, CloudCover, Events, WindDirDegrees
2012-4-1,48,37,26,39,33,26,100,87,46,29.90,29.75,29.61,10,9,1,9,1,,0.08,7,Rain,202
2012-4-2,52,42,28,38,25,9,96,60,23,29.85,29.70,29.60,10,10,10,23,9,33,0.00,4,,339
2012-4-3,57,38,21,26,13,6,85,42,14,29.88,29.81,29.74,10,10,10,20,6,30,0.00,1,,320
2012-4-4,60,44,28,37,27,15,100,61,19,29.74,29.62,29.49,10,9,2,30,7,43,0.08,5,Rain,311
2012-4-5,48,36,26,31,26,20,100,78,37,29.92,29.76,29.68,10,6,0,20,3,25,0.00,3,Fog,330
2012-4-6,51,36,21,25,18,12,96,53,22,30.02,29.95,29.90,10,10,10,22,5,28,0.00,1,,340
2012-4-7,55,38,23,23,19,13,85,49,25,30.03,29.99,29.93,10,10,10,17,5,28,0.00,3,,348
2012-4-8,55,46,37,26,24,21,65,43,29,29.98,29.77,29.60,10,10,10,16,6,25,0.00,6,,299
2012-4-9,50,44,34,33,30,27,89,58,43,29.64,29.57,29.52,10,10,10,15,6,26,0.00,5,,276
2012-4-10,55,44,32,29,25,21,88,44,26,29.77,29.65,29.60,10,10,10,18,7,30,0.00,5,,273
2012-4-11,55,40,27,41,30,23,96,66,31,29.90,29.82,29.77,10,10,10,10,2,,0.04,6,Rain,2
2012-4-12,54,44,34,40,35,31,100,73,47,30.11,29.98,29.90,10,10,10,14,4,20,0.02,6,Rain,359
2012-4-13,64,45,26,34,27,17,100,70,18,30.17,30.11,30.03,10,7,1,13,2,23,0.00,1,,304
2012-4-14,70,48,28,36,27,19,89,55,15,30.16,30.05,29.98,10,10,10,9,2,,0.00,1,,210
2012-4-15,75,58,44,59,46,36,93,61,43,30.00,29.96,29.90,10,10,10,10,2,18,0.01,4,,235
2012-4-16,89,72,55,61,55,47,100,71,25,30.01,29.95,29.86,10,6,0,17,3,24,0.08,3,Fog-Rain,179
2012-4-17,77,64,52,55,36,23,100,44,14,30.18,30.04,29.88,10,10,5,18,6,26,0.00,0,,296
2012-4-18,59,49,39,37,28,24,83,47,27,30.27,30.19,30.13,10,10,10,13,5,,0.00,0,,339
2012-4-19,73,52,32,42,33,24,96,57,19,30.12,30.04,29.95,10,10,2,12,2,,0.00,0,,181
2012-4-20,77,57,39,50,42,35,96,59,23,30.01,29.94,29.87,10,10,10,17,5,28,0.00,1,,181
2012-4-21,75,65,55,55,52,45,90,69,41,29.87,29.76,29.67,10,10,9,20,9,26,0.00,6,,184
2012-4-22,52,47,42,49,44,39,93,89,76,29.82,29.76,29.66,10,8,3,14,9,24,1.13,8,Rain,1
2012-4-23,68,54,41,57,45,37,100,82,61,29.58,29.34,29.24,10,8,2,22,11,30,0.65,8,Rain,140
2012-4-24,53,47,39,40,34,29,96,63,40,29.68,29.47,29.33,10,10,10,21,12,31,0.00,7,Rain,189
2012-4-25,55,41,28,37,31,27,100,77,38,29.89,29.75,29.66,10,5,0,13,2,23,0.01,3,Fog-Rain,255
2012-4-26,60,44,28,50,37,26,100,76,32,29.96,29.76,29.55,10,9,2,10,2,17,0.07,5,Rain,168
2012-4-27,52,44,37,50,34,21,100,67,44,30.04,29.72,29.52,10,9,3,22,9,36,0.07,7,Rain,288
2012-4-28,54,43,32,22,17,13,66,37,20,30.14,30.09,30.04,10,10,10,18,9,24,0.00,1,,294
2012-4-29,57,42,28,26,14,3,85,36,13,30.24,30.10,30.02,10,10,10,21,6,31,0.00,1,,313
2012-4-30,62,44,26,28,21,15,81,41,19,30.34,30.25,30.19,10,10,9,12,3,17,0.00,1,,198